createdAt,value
2019-02-15T00:02:38.597Z,10.33
2019-02-15T00:07:42.643Z,10.80
2019-02-15T00:12:46.659Z,12.03
2019-02-15T00:18:09.620Z,11.73
2019-02-15T00:23:13.646Z,9.43
2019-02-15T00:28:17.653Z,9.47
2019-02-15T00:33:21.686Z,10.63
2019-02-15T00:38:25.687Z,10.57
2019-02-15T00:43:29.809Z,11.07
2019-02-15T00:48:33.826Z,10.53
2019-02-15T00:53:52.629Z,10.37
2019-02-15T00:59:14.446Z,11.80
2019-02-15T01:04:36.447Z,10.23
2019-02-15T01:09:50.899Z,11.70
2019-02-15T01:14:54.915Z,13.17
2019-02-15T01:19:58.932Z,12.17
2019-02-15T01:25:02.942Z,13.83
2019-02-15T01:30:26.052Z,11.83
2019-02-15T01:35:49.019Z,12.40
2019-02-15T01:41:00.615Z,11.70
2019-02-15T01:46:11.633Z,12.87
2019-02-15T01:51:15.662Z,13.30
2019-02-15T01:56:19.829Z,11.23
2019-02-15T02:01:26.009Z,11.97
2019-02-15T02:06:30.007Z,14.17
2019-02-15T02:11:34.021Z,11.67
2019-02-15T02:16:38.044Z,10.43
2019-02-15T02:21:42.055Z,12.80
2019-02-15T02:26:46.060Z,11.43
2019-02-15T02:31:50.276Z,11.47
2019-02-15T02:36:57.983Z,10.97
2019-02-15T02:42:02.019Z,11.27
2019-02-15T02:47:06.028Z,11.13
2019-02-15T02:52:10.045Z,9.63
2019-02-15T02:57:14.057Z,11.40
2019-02-15T03:02:18.082Z,11.70
2019-02-15T03:07:22.094Z,10.70
2019-02-15T03:12:26.110Z,11.60
2019-02-15T03:17:30.478Z,13.87
2019-02-15T03:22:34.496Z,11.20
2019-02-15T03:27:38.519Z,12.57
2019-02-15T03:32:42.552Z,13.23
2019-02-15T03:38:05.513Z,13.03
2019-02-15T03:43:09.579Z,12.43
2019-02-15T03:48:13.634Z,12.47
2019-02-15T03:53:17.655Z,12.03
2019-02-15T03:58:21.681Z,11.90
2019-02-15T04:03:25.698Z,10.97
2019-02-15T04:08:29.705Z,13.27
2019-02-15T04:13:33.766Z,12.20
2019-02-15T04:18:37.803Z,11.77
2019-02-15T04:23:42.069Z,11.43
2019-02-15T04:28:46.082Z,10.73
2019-02-15T04:33:50.096Z,12.67
2019-02-15T04:38:54.116Z,14.40
2019-02-15T04:43:58.141Z,12.17
2019-02-15T04:49:02.159Z,13.10
2019-02-15T04:54:06.190Z,12.60
2019-02-15T04:59:10.214Z,11.67
2019-02-15T05:04:14.230Z,12.20
2019-02-15T05:09:18.255Z,12.37
2019-02-15T05:14:22.260Z,11.57
2019-02-15T05:19:26.289Z,11.37
2019-02-15T05:24:30.300Z,12.57
2019-02-15T05:29:34.315Z,14.10
2019-02-15T05:34:38.338Z,12.40
2019-02-15T05:39:42.519Z,12.23
2019-02-15T05:44:46.528Z,15.67
2019-02-15T05:49:50.605Z,13.40
2019-02-15T05:54:54.629Z,12.87
2019-02-15T05:59:58.677Z,12.63
2019-02-15T06:05:02.728Z,14.53
2019-02-15T06:10:07.581Z,13.80
2019-02-15T06:15:15.076Z,13.53
2019-02-15T06:20:17.429Z,15.73
2019-02-15T06:25:21.448Z,15.50
2019-02-15T06:30:25.462Z,15.00
2019-02-15T06:35:29.466Z,14.73
2019-02-15T06:40:33.524Z,12.70
2019-02-15T06:45:37.848Z,14.57
2019-02-15T06:50:41.863Z,13.80
2019-02-15T06:55:45.877Z,14.03
2019-02-15T07:01:08.098Z,16.07
2019-02-15T07:06:12.113Z,14.43
2019-02-15T07:11:16.130Z,14.53
2019-02-15T07:16:20.139Z,13.57
2019-02-15T07:21:24.145Z,13.57
2019-02-15T07:26:28.452Z,13.97
2019-02-15T07:31:32.484Z,12.70
2019-02-15T07:36:36.518Z,13.53
2019-02-15T07:41:40.554Z,14.70
2019-02-15T07:46:44.597Z,13.30
2019-02-15T07:51:48.687Z,13.90
2019-02-15T07:56:52.717Z,14.40
2019-02-15T08:02:01.873Z,14.47
2019-02-15T08:07:02.486Z,15.20
2019-02-15T08:12:06.497Z,14.20
2019-02-15T08:17:10.553Z,13.83
2019-02-15T08:22:14.578Z,14.40
2019-02-15T08:27:18.613Z,15.50
2019-02-15T08:32:22.631Z,13.90
2019-02-15T08:37:26.651Z,16.60
2019-02-15T08:42:30.701Z,17.47
2019-02-15T08:47:34.712Z,15.23
2019-02-15T08:52:38.739Z,14.87
2019-02-15T08:57:42.743Z,14.13
2019-02-15T09:02:46.773Z,14.73
2019-02-15T09:07:50.798Z,14.67
2019-02-15T09:12:54.817Z,17.03
2019-02-15T09:17:58.853Z,15.70
2019-02-15T09:23:02.870Z,16.80
2019-02-15T09:28:25.833Z,15.90
2019-02-15T09:33:29.921Z,16.13
2019-02-15T09:38:33.938Z,16.83
2019-02-15T09:43:37.955Z,15.77
2019-02-15T09:48:41.965Z,16.87
2019-02-15T09:53:45.977Z,16.17
2019-02-15T09:58:50.013Z,16.23
2019-02-15T10:03:55.301Z,16.50
2019-02-15T10:08:59.560Z,17.00
2019-02-15T10:14:03.589Z,17.80
2019-02-15T10:19:07.605Z,17.32
2019-02-15T10:24:11.619Z,16.73
2019-02-15T10:29:15.660Z,16.48
2019-02-15T10:34:19.682Z,16.12
2019-02-15T10:39:24.092Z,16.48
2019-02-15T10:44:28.152Z,15.65
2019-02-15T10:49:32.172Z,16.27
2019-02-15T10:54:36.199Z,16.42
2019-02-15T10:59:40.225Z,16.10
2019-02-15T11:04:44.667Z,16.07
2019-02-15T11:09:48.688Z,17.57
2019-02-15T11:14:52.733Z,16.57
2019-02-15T11:19:56.752Z,16.73
2019-02-15T11:25:00.589Z,16.52
2019-02-15T11:30:05.289Z,15.05
2019-02-15T11:35:10.760Z,14.20
2019-02-15T11:40:14.814Z,12.47
2019-02-15T11:45:18.844Z,11.00
2019-02-15T11:50:22.870Z,11.80
2019-02-15T11:55:26.891Z,12.23
2019-02-15T12:00:33.233Z,11.90
2019-02-15T12:05:37.266Z,11.10
2019-02-15T12:10:41.316Z,10.00
2019-02-15T12:15:45.320Z,10.03
2019-02-15T12:20:49.483Z,9.65
2019-02-15T12:25:53.512Z,9.75
2019-02-15T12:30:57.538Z,9.58
2019-02-15T12:36:01.573Z,9.73
2019-02-15T12:41:05.597Z,8.33
2019-02-15T12:46:09.638Z,8.88
2019-02-15T12:51:13.656Z,8.25
2019-02-15T12:56:17.669Z,7.40
2019-02-15T13:01:21.815Z,7.05
2019-02-15T13:06:28.661Z,7.45
2019-02-15T13:11:31.888Z,6.62
2019-02-15T13:16:35.917Z,7.17
2019-02-15T13:21:39.950Z,7.30
2019-02-15T13:26:44.022Z,7.53
2019-02-15T13:31:48.074Z,6.25
2019-02-15T13:36:52.097Z,7.60
2019-02-15T13:41:56.192Z,7.00
2019-02-15T13:47:00.222Z,8.28
2019-02-15T13:52:04.488Z,8.43
2019-02-15T13:57:08.698Z,8.45
2019-02-15T14:02:12.696Z,8.13
2019-02-15T14:07:18.637Z,8.90
2019-02-15T14:12:22.640Z,8.03
2019-02-15T14:17:26.673Z,8.43
2019-02-15T14:22:30.802Z,8.45
2019-02-15T14:27:35.761Z,11.43
2019-02-15T14:32:39.780Z,9.00
2019-02-15T14:37:43.801Z,9.23
2019-02-15T14:42:49.307Z,6.87
2019-02-15T14:47:55.305Z,7.60
2019-02-15T14:52:59.562Z,8.30
2019-02-15T14:58:03.608Z,8.08
2019-02-15T15:03:07.744Z,8.20
2019-02-15T15:08:11.767Z,6.80
2019-02-15T15:13:15.789Z,7.08
2019-02-15T15:18:19.800Z,5.92
2019-02-15T15:23:23.848Z,6.15
2019-02-15T15:28:27.871Z,6.92
2019-02-15T15:33:31.887Z,5.55
2019-02-15T15:38:35.903Z,4.60
2019-02-15T15:43:39.927Z,4.58
2019-02-15T15:48:43.961Z,5.55
2019-02-15T15:53:48.085Z,9.10
2019-02-15T15:58:52.087Z,6.05
2019-02-15T16:03:56.114Z,7.37
2019-02-15T16:09:00.137Z,7.22
2019-02-15T16:14:04.229Z,8.08
2019-02-15T16:19:08.452Z,9.00
2019-02-15T16:24:13.026Z,10.10
2019-02-15T16:29:17.014Z,8.43
2019-02-15T16:34:21.077Z,8.28
2019-02-15T16:39:25.071Z,10.23
2019-02-15T16:44:29.114Z,11.63
2019-02-15T16:49:33.137Z,10.23
2019-02-15T16:54:37.176Z,10.43
2019-02-15T16:59:41.244Z,11.53
2019-02-15T17:04:45.264Z,12.45
2019-02-15T17:09:49.300Z,20.60
2019-02-15T17:14:53.451Z,15.00
2019-02-15T17:19:57.480Z,14.20
2019-02-15T17:25:01.500Z,15.48
2019-02-15T17:30:05.869Z,14.87
2019-02-15T17:35:10.042Z,14.60
2019-02-15T17:40:14.131Z,15.38
2019-02-15T17:45:18.159Z,14.13
2019-02-15T17:50:22.200Z,16.37
2019-02-15T17:55:26.220Z,16.35
2019-02-15T18:00:31.814Z,18.37
2019-02-15T18:05:35.841Z,16.27
2019-02-15T18:10:39.936Z,15.38
2019-02-15T18:15:44.005Z,16.93
2019-02-15T18:20:48.042Z,17.33
2019-02-15T18:25:52.064Z,16.67
2019-02-15T18:30:56.174Z,20.67
2019-02-15T18:36:00.224Z,17.83
2019-02-15T18:41:13.115Z,18.47
2019-02-15T18:46:10.034Z,19.90
2019-02-15T18:51:15.047Z,20.23
2019-02-15T18:56:19.081Z,19.17
2019-02-15T19:01:23.463Z,20.27
2019-02-15T19:06:27.482Z,19.20
2019-02-15T19:11:31.533Z,19.63
2019-02-15T19:16:35.749Z,19.37
2019-02-15T19:21:39.801Z,20.63
2019-02-15T19:26:43.951Z,18.90
2019-02-15T19:31:48.087Z,18.43
2019-02-15T19:36:52.164Z,21.70
2019-02-15T19:41:56.206Z,21.47
2019-02-15T19:47:00.281Z,18.97
2019-02-15T19:52:04.328Z,17.07
2019-02-15T19:57:08.404Z,14.73
2019-02-15T20:02:12.487Z,14.20
2019-02-15T20:07:16.737Z,16.00
2019-02-15T20:12:20.892Z,17.03
2019-02-15T20:17:25.074Z,22.33
2019-02-15T20:22:29.200Z,16.27
2019-02-15T20:27:33.372Z,15.00
2019-02-15T20:32:37.540Z,14.07
2019-02-15T20:37:42.016Z,16.67
2019-02-15T20:42:46.106Z,19.63
2019-02-15T20:47:50.236Z,21.70
2019-02-15T20:52:54.259Z,20.23
2019-02-15T20:57:58.496Z,19.10
2019-02-15T21:03:02.669Z,20.40
2019-02-15T21:08:06.725Z,22.60
2019-02-15T21:13:19.979Z,21.63
2019-02-15T21:18:16.582Z,19.73
2019-02-15T21:23:20.780Z,19.30
2019-02-15T21:28:25.100Z,18.87
2019-02-15T21:33:29.149Z,18.50
2019-02-15T21:38:33.211Z,18.83
2019-02-15T21:43:37.383Z,17.70
2019-02-15T21:48:41.421Z,17.07
2019-02-15T21:53:45.486Z,17.70
2019-02-15T21:58:49.517Z,21.53
2019-02-15T22:03:53.562Z,23.27
2019-02-15T22:08:57.584Z,17.97
2019-02-15T22:14:01.608Z,20.77
2019-02-15T22:19:05.876Z,20.40
2019-02-15T22:24:09.914Z,19.07
2019-02-15T22:29:13.951Z,20.77
2019-02-15T22:34:18.008Z,19.67
2019-02-15T22:39:22.033Z,23.63
2019-02-15T22:44:26.064Z,19.00
2019-02-15T22:49:30.170Z,22.40
2019-02-15T22:54:34.215Z,17.67
2019-02-15T22:59:38.234Z,21.97
2019-02-15T23:04:42.331Z,19.23
2019-02-15T23:09:46.557Z,18.43
2019-02-15T23:14:50.573Z,17.30
2019-02-15T23:19:54.695Z,20.13
2019-02-15T23:24:58.713Z,18.23
2019-02-15T23:30:02.747Z,23.60
2019-02-15T23:35:06.775Z,21.70
2019-02-15T23:40:10.786Z,23.40
2019-02-15T23:45:14.803Z,21.23
2019-02-15T23:50:18.837Z,16.93
2019-02-15T23:55:22.866Z,16.03
